Time;durP1;ratioP1;P1;durP2;ratioP2;P2;SDS_P1;SDS_P2;PMS_P1;PMS_P2;Temp;Humidity;BMP_temperature;BMP_pressure;BME280_temperature;BME280_humidity;BME280_pressure;Samples;Min_cycle;Max_cycle;Signal;HPM_P1;HPM_P2
2020/12/26 00:00:40;;;;;;;15.53;9.10;;;;;;;-0.46;85.31;92724.02;1799379;76;21280;-75
2020/12/26 00:03:08;;;;;;;21.60;12.20;;;;;;;-0.48;85.44;92723.04;1870859;76;21691;-75
2020/12/26 00:05:39;;;;;;;21.57;11.13;;;;;;;-0.50;85.65;92726.03;1809866;76;21310;-76
2020/12/26 00:08:08;;;;;;;17.05;9.83;;;;;;;-0.51;85.76;92723.72;1837046;76;21527;-75
2020/12/26 00:10:36;;;;;;;16.93;9.90;;;;;;;-0.50;85.94;92739.95;1826612;77;21192;-75
2020/12/26 00:13:05;;;;;;;19.03;11.17;;;;;;;-0.51;86.15;92737.84;1819803;77;21652;-76
2020/12/26 00:15:33;;;;;;;12.57;7.33;;;;;;;-0.52;86.35;92732.86;1844773;77;21565;-76
2020/12/26 00:18:01;;;;;;;8.23;5.40;;;;;;;-0.56;86.42;92731.42;1811755;79;21426;-77
2020/12/26 00:20:30;;;;;;;5.47;4.05;;;;;;;-0.56;86.62;92734.66;1810172;79;21824;-76
2020/12/26 00:22:58;;;;;;;6.83;5.03;;;;;;;-0.57;86.84;92735.75;1847121;76;21178;-77
2020/12/26 00:25:27;;;;;;;6.53;4.25;;;;;;;-0.55;86.70;92728.19;1835093;77;21640;-76
2020/12/26 00:27:55;;;;;;;3.17;2.87;;;;;;;-0.53;86.40;92732.08;1831803;74;21240;-76
2020/12/26 00:30:23;;;;;;;3.17;2.35;;;;;;;-0.53;86.23;92733.95;1877668;76;21636;-77
2020/12/26 00:32:51;;;;;;;3.22;2.92;;;;;;;-0.55;85.69;92738.31;1811930;76;21234;-76
2020/12/26 00:35:20;;;;;;;2.37;2.17;;;;;;;-0.57;85.91;92739.20;1810386;79;21152;-76
2020/12/26 00:37:48;;;;;;;2.73;2.47;;;;;;;-0.57;86.20;92737.86;1808871;77;21115;-76
2020/12/26 00:40:16;;;;;;;3.47;3.00;;;;;;;-0.59;86.10;92736.67;1808546;79;21139;-76
2020/12/26 00:42:44;;;;;;;3.77;2.90;;;;;;;-0.63;86.26;92739.25;1809269;79;21379;-77
2020/12/26 00:45:14;;;;;;;4.23;3.17;;;;;;;-0.69;86.62;92739.83;1810106;78;21210;-75
2020/12/26 00:47:43;;;;;;;5.20;3.08;;;;;;;-0.72;86.74;92741.83;1839483;77;21157;-76
2020/12/26 00:50:12;;;;;;;4.23;3.30;;;;;;;-0.76;86.74;92741.73;1853713;74;21145;-75
2020/12/26 00:52:41;;;;;;;4.13;3.20;;;;;;;-0.77;87.04;92741.53;1858891;75;21629;-75
2020/12/26 00:55:09;;;;;;;2.60;2.40;;;;;;;-0.77;86.88;92736.96;1838697;77;21198;-76
2020/12/26 00:57:42;;;;;;;2.97;2.67;;;;;;;-0.73;86.95;92737.05;1848352;77;21219;-75
2020/12/26 01:00:09;;;;;;;4.63;3.30;;;;;;;-0.71;86.87;92734.84;1813425;79;21601;-75
2020/12/26 01:02:39;;;;;;;2.67;2.47;;;;;;;-0.71;86.76;92734.84;1806371;78;21701;-76
2020/12/26 01:05:08;;;;;;;6.43;4.33;;;;;;;-0.71;86.67;92735.38;1796440;77;21183;-76
2020/12/26 01:07:37;;;;;;;6.73;3.90;;;;;;;-0.77;86.68;92734.86;1845795;77;21657;-76
2020/12/26 01:10:06;;;;;;;4.43;2.90;;;;;;;-0.77;86.99;92738.30;1839323;77;21570;-76
2020/12/26 01:12:35;;;;;;;6.43;4.13;;;;;;;-0.79;86.65;92727.73;1811374;79;21187;-76
2020/12/26 01:15:04;;;;;;;4.27;3.17;;;;;;;-0.87;86.37;92728.09;1872917;76;21145;-76
2020/12/26 01:17:33;;;;;;;3.83;3.20;;;;;;;-0.91;86.01;92731.23;1854381;76;21189;-76
2020/12/26 01:20:01;;;;;;;3.20;2.90;;;;;;;-1.00;85.99;92718.59;1858321;76;21760;-75
2020/12/26 01:22:29;;;;;;;3.83;2.57;;;;;;;-1.05;86.42;92714.28;1852928;76;21191;-75
2020/12/26 01:24:57;;;;;;;3.47;2.90;;;;;;;-1.05;86.57;92712.18;1811555;75;21219;-75
2020/12/26 01:27:25;;;;;;;3.00;2.80;;;;;;;-1.06;86.63;92720.72;1878616;76;21145;-75
2020/12/26 01:29:53;;;;;;;3.03;2.73;;;;;;;-1.09;86.58;92722.75;1819098;76;21203;-77
2020/12/26 01:32:27;;;;;;;5.23;3.33;;;;;;;-1.14;86.71;92717.64;1831153;77;21183;-76
2020/12/26 01:34:52;;;;;;;4.77;3.13;;;;;;;-1.17;87.13;92721.53;1842490;75;21202;-76
2020/12/26 01:37:20;;;;;;;4.27;3.23;;;;;;;-1.18;87.17;92730.10;1843937;75;21029;-76
2020/12/26 01:39:48;;;;;;;3.00;2.77;;;;;;;-1.19;86.98;92725.11;1849125;77;22198;-77
2020/12/26 01:42:16;;;;;;;3.33;3.00;;;;;;;-1.22;87.01;92724.66;1836690;76;21306;-76
2020/12/26 01:44:45;;;;;;;4.57;3.83;;;;;;;-1.22;87.24;92729.23;1837681;77;22220;-76
2020/12/26 01:47:14;;;;;;;4.43;3.47;;;;;;;-1.26;86.85;92725.13;1839887;75;21159;-76
2020/12/26 01:49:42;;;;;;;3.20;2.90;;;;;;;-1.26;86.96;92734.45;1844701;77;21467;-76
2020/12/26 01:52:13;;;;;;;4.87;3.03;;;;;;;-1.28;86.45;92738.03;1855327;76;21162;-78
2020/12/26 01:54:42;;;;;;;3.13;2.83;;;;;;;-1.34;86.19;92735.38;1812798;78;21140;-76
2020/12/26 01:57:11;;;;;;;4.30;2.83;;;;;;;-1.38;85.65;92741.16;1871568;76;21175;-76
2020/12/26 01:59:39;;;;;;;3.10;2.80;;;;;;;-1.42;84.97;92738.95;1850020;76;21210;-76
2020/12/26 02:02:08;;;;;;;3.53;2.93;;;;;;;-1.47;85.25;92743.16;1825561;78;21124;-77
2020/12/26 02:04:38;;;;;;;3.93;2.87;;;;;;;-1.51;85.68;92751.05;1817510;77;21219;-75
2020/12/26 02:07:06;;;;;;;3.10;2.80;;;;;;;-1.54;85.58;92748.30;1814604;76;21171;-76
2020/12/26 02:09:34;;;;;;;4.23;3.20;;;;;;;-1.62;84.84;92753.95;1808381;77;21636;-76
2020/12/26 02:12:03;;;;;;;3.30;2.70;;;;;;;-1.67;84.21;92756.08;1837560;77;21148;-77
2020/12/26 02:14:31;;;;;;;3.63;2.80;;;;;;;-1.73;84.41;92760.84;1844988;77;21481;-76
2020/12/26 02:16:59;;;;;;;4.13;2.90;;;;;;;-1.75;84.54;92766.52;1831892;78;21187;-77
2020/12/26 02:19:27;;;;;;;3.13;2.83;;;;;;;-1.73;84.60;92770.98;1806436;79;21176;-76
2020/12/26 02:21:56;;;;;;;6.27;4.57;;;;;;;-1.72;84.46;92778.41;1873712;76;21641;-76
2020/12/26 02:24:24;;;;;;;3.23;2.93;;;;;;;-1.72;84.42;92787.19;1874075;76;21150;-75
2020/12/26 02:26:52;;;;;;;4.00;3.67;;;;;;;-1.74;83.89;92781.95;1872629;76;21117;-77
2020/12/26 02:29:20;;;;;;;3.90;2.60;;;;;;;-1.78;83.70;92777.84;1844663;76;21701;-77
2020/12/26 02:31:48;;;;;;;3.63;3.20;;;;;;;-1.79;83.22;92780.30;1810612;77;21168;-76
2020/12/26 02:34:17;;;;;;;3.23;2.80;;;;;;;-1.81;83.63;92781.73;1817678;77;22164;-76
2020/12/26 02:36:45;;;;;;;3.60;3.23;;;;;;;-1.82;83.86;92777.52;1853735;77;21186;-77
2020/12/26 02:39:15;;;;;;;3.50;3.00;;;;;;;-1.82;83.25;92774.30;1789809;77;21241;-77
2020/12/26 02:41:45;;;;;;;3.60;3.30;;;;;;;-1.85;83.34;92782.95;1800373;78;21482;-76
2020/12/26 02:44:13;;;;;;;4.00;3.30;;;;;;;-1.86;82.97;92780.06;1824479;77;21123;-76
2020/12/26 02:46:42;;;;;;;5.53;4.13;;;;;;;-1.86;83.19;92789.39;1839871;77;21761;-77
2020/12/26 02:49:10;;;;;;;4.50;3.30;;;;;;;-1.85;83.09;92789.61;1808860;78;21447;-76
2020/12/26 02:51:38;;;;;;;4.97;3.53;;;;;;;-1.82;83.19;92786.28;1803316;78;21173;-76
2020/12/26 02:54:07;;;;;;;5.13;3.70;;;;;;;-1.80;82.25;92788.63;1809518;79;21176;-77
2020/12/26 02:56:36;;;;;;;6.63;4.63;;;;;;;-1.87;82.01;92789.73;1818586;78;21163;-77
2020/12/26 02:59:07;;;;;;;5.20;4.00;;;;;;;-1.87;82.42;92797.73;1826840;76;22242;-76
2020/12/26 03:01:40;;;;;;;4.67;3.47;;;;;;;-1.84;82.64;92797.84;1831077;78;21185;-77
2020/12/26 03:04:09;;;;;;;3.93;3.27;;;;;;;-1.84;82.89;92797.05;1791944;79;21174;-76
2020/12/26 03:06:37;;;;;;;2.80;2.60;;;;;;;-1.87;81.96;92800.40;1837059;76;21134;-76
2020/12/26 03:09:05;;;;;;;3.63;3.10;;;;;;;-1.89;81.84;92803.38;1841255;76;21130;-76
2020/12/26 03:11:34;;;;;;;4.00;3.60;;;;;;;-1.89;82.47;92815.93;1841801;76;21182;-77
2020/12/26 03:14:02;;;;;;;5.30;3.40;;;;;;;-1.88;82.82;92805.48;1837718;77;21187;-76
2020/12/26 03:16:31;;;;;;;6.07;3.40;;;;;;;-1.86;83.20;92805.39;1822793;78;21156;-77
2020/12/26 03:18:59;;;;;;;2.90;2.60;;;;;;;-1.81;83.00;92804.38;1805120;79;21180;-76
2020/12/26 03:21:27;;;;;;;3.70;3.10;;;;;;;-1.81;83.04;92805.16;1818065;77;21154;-76
2020/12/26 03:23:55;;;;;;;7.57;4.07;;;;;;;-1.82;82.99;92803.61;1831086;77;22618;-76
2020/12/26 03:26:23;;;;;;;3.50;3.20;;;;;;;-1.80;83.15;92809.95;1834145;77;21175;-76
2020/12/26 03:28:51;;;;;;;6.80;4.47;;;;;;;-1.79;83.31;92802.95;1822396;78;21135;-76
2020/12/26 03:31:20;;;;;;;7.10;5.00;;;;;;;-1.81;83.00;92805.72;1795885;78;22032;-76
2020/12/26 03:33:48;;;;;;;5.80;4.30;;;;;;;-1.81;83.18;92803.83;1782765;78;21294;-76
2020/12/26 03:36:16;;;;;;;12.40;11.10;;;;;;;-1.78;83.11;92802.39;1794499;79;21691;-76
2020/12/26 03:38:45;;;;;;;22.53;20.27;;;;;;;-1.78;82.84;92805.05;1808357;78;21176;-76
2020/12/26 03:41:13;;;;;;;5.70;5.10;;;;;;;-1.78;82.76;92805.83;1828029;76;21262;-76
2020/12/26 03:43:42;;;;;;;5.57;4.90;;;;;;;-1.78;82.41;92800.50;1882089;75;21081;-76
2020/12/26 03:46:10;;;;;;;4.90;4.40;;;;;;;-1.77;82.21;92800.74;1882084;76;21141;-76
2020/12/26 03:48:38;;;;;;;5.70;3.83;;;;;;;-1.74;82.39;92798.72;1876013;75;22424;-76
2020/12/26 03:51:06;;;;;;;4.03;3.63;;;;;;;-1.72;82.63;92799.73;1860223;76;21202;-76
2020/12/26 03:53:34;;;;;;;4.60;3.47;;;;;;;-1.71;82.54;92802.06;1837207;77;21457;-75
2020/12/26 03:56:03;;;;;;;5.60;3.63;;;;;;;-1.71;82.45;92803.39;1827056;77;21181;-76
2020/12/26 03:58:31;;;;;;;4.60;3.33;;;;;;;-1.72;82.17;92815.17;1777624;78;21610;-75
2020/12/26 04:00:59;;;;;;;4.03;3.47;;;;;;;-1.72;81.62;92809.84;1817961;76;21334;-75
2020/12/26 04:03:27;;;;;;;6.23;4.23;;;;;;;-1.76;81.44;92816.95;1802283;77;21205;-76
2020/12/26 04:05:55;;;;;;;7.23;5.37;;;;;;;-1.76;81.49;92824.17;1800974;79;21193;-76
2020/12/26 04:08:24;;;;;;;8.80;6.07;;;;;;;-1.75;81.62;92818.50;1817858;77;21159;-75
2020/12/26 04:10:52;;;;;;;6.20;4.10;;;;;;;-1.76;81.46;92824.95;1845685;77;21172;-75
2020/12/26 04:13:21;;;;;;;6.37;4.70;;;;;;;-1.78;81.76;92833.05;1788362;80;21330;-76
2020/12/26 04:15:50;;;;;;;5.00;4.20;;;;;;;-1.82;81.30;92830.82;1806463;76;21152;-76
2020/12/26 04:18:18;;;;;;;6.20;4.80;;;;;;;-1.85;81.30;92824.81;1823236;78;21138;-77
2020/12/26 04:20:49;;;;;;;4.23;3.40;;;;;;;-1.86;80.63;92829.93;1832307;77;21185;-76
2020/12/26 04:23:18;;;;;;;3.43;2.57;;;;;;;-1.88;80.07;92824.14;1863568;75;21267;-76
2020/12/26 04:25:46;;;;;;;5.17;4.73;;;;;;;-1.97;78.89;92830.35;1800885;79;22477;-76
2020/12/26 04:28:14;;;;;;;4.07;3.67;;;;;;;-2.02;79.56;92833.23;1812054;77;21183;-77
2020/12/26 04:30:42;;;;;;;3.27;2.80;;;;;;;-2.01;80.21;92839.34;1839815;77;21158;-77
2020/12/26 04:33:11;;;;;;;3.63;2.50;;;;;;;-2.02;78.93;92833.80;1828451;77;21108;-76
2020/12/26 04:35:39;;;;;;;3.20;2.87;;;;;;;-2.10;78.44;92820.02;1820921;77;21191;-76
2020/12/26 04:38:08;;;;;;;3.40;3.03;;;;;;;-2.18;78.64;92822.20;1813443;77;22443;-77
2020/12/26 04:40:37;;;;;;;3.33;2.30;;;;;;;-2.25;78.73;92816.10;1857629;77;21706;-76
2020/12/26 04:43:06;;;;;;;4.53;2.80;;;;;;;-2.27;78.64;92823.63;1812202;77;21665;-76
2020/12/26 04:45:34;;;;;;;4.27;2.80;;;;;;;-2.28;78.85;92836.17;1842743;77;21440;-76
2020/12/26 04:48:04;;;;;;;3.63;2.73;;;;;;;-2.32;78.97;92829.17;1817790;77;21092;-76
2020/12/26 04:50:34;;;;;;;3.17;2.83;;;;;;;-2.33;78.89;92827.59;1794185;76;21196;-76
2020/12/26 04:53:04;;;;;;;4.73;3.30;;;;;;;-2.33;79.03;92835.59;1874690;76;21169;-76
2020/12/26 04:55:35;;;;;;;3.13;2.83;;;;;;;-2.33;79.07;92834.25;1872007;76;21125;-76
2020/12/26 04:58:08;;;;;;;3.27;2.27;;;;;;;-2.32;79.41;92831.28;1842954;76;21179;-76
2020/12/26 05:00:38;;;;;;;4.50;3.03;;;;;;;-2.27;78.24;92839.61;1815566;77;21025;-76
2020/12/26 05:03:12;;;;;;;3.03;2.73;;;;;;;-2.29;78.88;92833.29;1821050;77;21636;-77
2020/12/26 05:05:44;;;;;;;35.90;28.53;;;;;;;-2.29;78.19;92831.96;1836770;77;21175;-77
2020/12/26 05:08:15;;;;;;;6.23;5.63;;;;;;;-2.29;78.46;92834.63;1809578;79;21179;-76
2020/12/26 05:10:43;;;;;;;4.40;4.00;;;;;;;-2.30;77.62;92837.59;1809553;79;21443;-76
2020/12/26 05:13:12;;;;;;;6.10;5.50;;;;;;;-2.31;77.53;92834.72;1842501;76;21134;-77
2020/12/26 05:15:41;;;;;;;5.03;4.57;;;;;;;-2.28;77.59;92838.06;1821362;77;22274;-77
2020/12/26 05:18:09;;;;;;;6.70;6.00;;;;;;;-2.25;77.83;92838.18;1839730;76;21161;-76
2020/12/26 05:20:38;;;;;;;6.90;5.83;;;;;;;-2.23;78.25;92831.19;1875951;76;21317;-76
2020/12/26 05:23:15;;;;;;;4.63;3.57;;;;;;;-2.18;78.37;92842.17;1858156;77;21181;-77
2020/12/26 05:25:50;;;;;;;5.03;4.53;;;;;;;-2.14;77.62;92845.20;1820161;77;21155;-78
2020/12/26 05:28:20;;;;;;;7.03;4.22;;;;;;;-2.11;77.13;92845.86;1870419;75;21274;-77
2020/12/26 05:30:50;;;;;;;3.40;3.10;;;;;;;-2.09;77.22;92846.32;1832487;75;21530;-78
2020/12/26 05:33:18;;;;;;;3.10;2.73;;;;;;;-2.06;77.25;92844.89;1837592;75;21165;-79
2020/12/26 05:35:51;;;;;;;3.00;2.60;;;;;;;-2.06;75.69;92854.22;1865380;76;21524;-78
2020/12/26 05:38:21;;;;;;;3.60;3.07;;;;;;;-2.17;75.59;92865.06;1810347;79;21484;-78
2020/12/26 05:40:53;;;;;;;4.07;2.67;;;;;;;-2.20;76.24;92863.27;1798231;79;21981;-78
2020/12/26 05:43:33;;;;;;;2.70;2.50;;;;;;;-2.19;76.35;92870.70;1768859;79;21163;-78
2020/12/26 05:46:01;;;;;;;2.50;2.30;;;;;;;-2.14;76.46;92869.19;1803202;78;21151;-78
2020/12/26 05:48:30;;;;;;;3.43;2.60;;;;;;;-2.16;75.93;92874.05;1815552;78;21136;-77
2020/12/26 05:51:00;;;;;;;3.50;3.10;;;;;;;-2.21;76.62;92875.03;1756324;79;21164;-78
2020/12/26 05:53:28;;;;;;;3.43;2.47;;;;;;;-2.23;76.81;92875.91;1790725;78;21181;-78
2020/12/26 05:55:57;;;;;;;2.90;2.13;;;;;;;-2.25;76.57;92874.14;1808563;78;21168;-77
2020/12/26 05:58:26;;;;;;;3.50;3.00;;;;;;;-2.28;76.55;92896.09;1841134;76;21172;-77
2020/12/26 06:00:59;;;;;;;3.90;3.10;;;;;;;-2.26;77.17;92901.08;1800435;77;21185;-78
2020/12/26 06:03:29;;;;;;;3.87;2.47;;;;;;;-2.23;77.23;92900.44;1764999;80;21228;-75
2020/12/26 06:05:58;;;;;;;6.13;4.70;;;;;;;-2.20;77.48;92905.11;1766365;78;21723;-78
2020/12/26 06:08:28;;;;;;;4.60;2.87;;;;;;;-2.15;77.50;92901.46;1803658;79;21192;-76
2020/12/26 06:11:03;;;;;;;3.77;2.70;;;;;;;-2.09;77.12;92896.16;1851545;77;21682;-76
2020/12/26 06:13:35;;;;;;;2.65;2.45;;;;;;;-2.13;76.34;92892.05;1832364;77;21163;-77
2020/12/26 06:16:09;;;;;;;4.60;2.80;;;;;;;-2.17;76.36;92890.37;1827606;76;21156;-76
2020/12/26 06:18:43;;;;;;;2.47;2.30;;;;;;;-2.20;76.55;92877.92;1848430;76;22707;-77
2020/12/26 06:21:18;;;;;;;2.90;2.67;;;;;;;-2.21;76.56;92891.58;1788255;79;21225;-76
2020/12/26 06:23:46;;;;;;;5.50;3.20;;;;;;;-2.25;75.86;92886.68;1778888;78;21260;-76
2020/12/26 06:26:14;;;;;;;8.23;6.53;;;;;;;-2.31;76.32;92876.77;1808097;79;21187;-79
2020/12/26 06:28:43;;;;;;;6.27;3.33;;;;;;;-2.37;76.22;92869.30;1779953;77;21206;-77
2020/12/26 06:31:11;;;;;;;3.27;2.70;;;;;;;-2.43;76.70;92892.70;1852116;77;21318;-77
2020/12/26 06:33:41;;;;;;;6.07;4.00;;;;;;;-2.51;77.15;92900.99;1853762;75;21661;-76
2020/12/26 06:36:10;;;;;;;4.47;3.93;;;;;;;-2.55;77.30;92923.27;1818534;76;21172;-76
2020/12/26 06:38:40;;;;;;;5.80;4.63;;;;;;;-2.60;77.50;92930.88;1874377;76;21181;-76
2020/12/26 06:41:15;;;;;;;5.87;4.50;;;;;;;-2.61;78.34;92937.87;1836348;77;21092;-78
2020/12/26 06:43:54;;;;;;;12.87;7.93;;;;;;;-2.59;78.39;92943.66;1816518;77;21348;-76
2020/12/26 06:46:34;;;;;;;8.00;5.90;;;;;;;-2.57;79.09;92952.09;1778551;79;21183;-77
2020/12/26 06:49:03;;;;;;;4.90;4.40;;;;;;;-2.53;79.15;92951.11;1831411;77;21663;-76
2020/12/26 06:51:42;;;;;;;7.77;6.43;;;;;;;-2.46;79.24;92957.25;1841799;77;21172;-76
2020/12/26 06:54:14;;;;;;;7.43;5.67;;;;;;;-2.38;79.15;92955.08;1809155;77;21748;-76
2020/12/26 06:56:46;;;;;;;6.33;4.40;;;;;;;-2.36;79.30;92955.55;1822553;77;21654;-76
2020/12/26 06:59:15;;;;;;;5.73;4.50;;;;;;;-2.33;79.60;92954.09;1854531;76;21456;-77
2020/12/26 07:01:46;;;;;;;12.27;8.80;;;;;;;-2.26;79.71;92954.35;1839304;76;21116;-76
2020/12/26 07:04:21;;;;;;;11.17;8.03;;;;;;;-2.24;79.74;92955.59;1844797;77;21060;-76
2020/12/26 07:06:52;;;;;;;7.95;6.58;;;;;;;-2.24;79.81;92954.27;1842730;77;21119;-77
2020/12/26 07:09:37;;;;;;;7.27;5.87;;;;;;;-2.27;80.10;92968.22;1844615;77;21186;-77
2020/12/26 07:12:09;;;;;;;7.10;5.10;;;;;;;-2.29;80.51;92963.02;1844815;77;21485;-78
2020/12/26 07:14:40;;;;;;;16.27;7.93;;;;;;;-2.35;80.69;92961.09;1834603;78;21107;-79
2020/12/26 07:17:19;;;;;;;8.37;5.03;;;;;;;-2.38;80.84;92967.06;1813537;77;21621;-78
2020/12/26 07:19:48;;;;;;;8.20;5.03;;;;;;;-2.37;81.34;92962.50;1831129;77;21108;-77
2020/12/26 07:22:30;;;;;;;6.67;4.37;;;;;;;-2.36;81.58;92954.77;1831415;78;21556;-77
2020/12/26 07:25:05;;;;;;;5.47;4.00;;;;;;;-2.33;81.46;92954.09;1837041;77;21127;-76
2020/12/26 07:27:40;;;;;;;3.87;3.20;;;;;;;-2.33;81.52;92957.56;1846850;77;21111;-77
2020/12/26 07:30:17;;;;;;;4.70;3.87;;;;;;;-2.30;81.40;92963.55;1837680;77;21115;-77
2020/12/26 07:32:55;;;;;;;4.87;4.10;;;;;;;-2.27;81.36;92965.56;1849478;77;21345;-76
2020/12/26 07:35:32;;;;;;;4.90;4.37;;;;;;;-2.24;81.42;92962.81;1808503;77;21374;-77
2020/12/26 07:38:11;;;;;;;7.50;4.35;;;;;;;-2.23;81.18;92969.69;1844564;77;21088;-76
2020/12/26 07:40:46;;;;;;;6.47;4.53;;;;;;;-2.20;81.18;92972.48;1812445;78;27499;-78
2020/12/26 07:43:17;;;;;;;5.83;3.73;;;;;;;-2.24;81.46;92985.45;1834472;77;21195;-77
2020/12/26 07:45:46;;;;;;;5.43;3.63;;;;;;;-2.22;81.55;92990.69;1826693;76;21191;-77
2020/12/26 07:48:14;;;;;;;13.20;6.37;;;;;;;-2.21;81.71;92989.58;1769414;79;21199;-78
2020/12/26 07:50:43;;;;;;;17.90;8.27;;;;;;;-2.18;81.98;92986.02;1804376;78;21295;-78
2020/12/26 07:53:13;;;;;;;11.40;7.20;;;;;;;-2.18;82.25;92990.02;1761607;80;21220;-78
2020/12/26 07:55:41;;;;;;;8.10;6.07;;;;;;;-2.21;82.46;92986.91;1787310;79;21307;-78
2020/12/26 07:58:16;;;;;;;7.27;5.30;;;;;;;-2.20;82.86;92995.68;1742542;80;22499;-80
2020/12/26 08:00:44;;;;;;;8.98;6.03;;;;;;;-2.19;83.03;93003.89;1763142;79;21167;-77
2020/12/26 08:03:14;;;;;;;9.13;5.93;;;;;;;-2.20;83.22;93003.11;1795401;79;21164;-76
2020/12/26 08:05:48;;;;;;;14.77;8.40;;;;;;;-2.19;83.33;93009.22;1744866;81;21246;-79
2020/12/26 08:10:57;;;;;;;31.67;16.73;;;;;;;-2.21;83.53;93014.88;1862111;76;22153;-77
2020/12/26 08:13:29;;;;;;;20.87;13.23;;;;;;;-2.21;83.55;93020.20;1815156;78;21120;-78
2020/12/26 08:16:03;;;;;;;37.10;21.90;;;;;;;-2.20;83.70;93012.99;1761301;78;21658;-76
2020/12/26 08:18:33;;;;;;;7.95;5.65;;;;;;;-2.21;83.85;93014.88;1746914;80;21120;-76
2020/12/26 08:21:01;;;;;;;7.00;5.27;;;;;;;-2.21;83.78;93014.11;1710989;81;21151;-77
2020/12/26 08:23:29;;;;;;;7.13;4.93;;;;;;;-2.20;83.71;93016.43;1718231;83;22438;-77
2020/12/26 08:26:02;;;;;;;5.77;4.30;;;;;;;-2.22;83.62;93015.99;1767448;80;21144;-77
2020/12/26 08:28:31;;;;;;;8.47;4.77;;;;;;;-2.18;83.67;93021.45;1750503;80;21135;-77
2020/12/26 08:31:02;;;;;;;8.10;5.57;;;;;;;-2.20;83.70;93026.31;1733985;80;21136;-77
2020/12/26 08:33:40;;;;;;;7.40;4.60;;;;;;;-2.18;83.97;93040.09;1720095;80;21140;-79
2020/12/26 08:36:15;;;;;;;7.47;5.30;;;;;;;-2.13;84.00;93048.44;1777790;78;21353;-78
2020/12/26 08:38:58;;;;;;;6.93;5.10;;;;;;;-2.10;84.02;93051.24;1822235;78;21570;-78
2020/12/26 08:41:27;;;;;;;6.23;4.60;;;;;;;-2.06;83.91;93054.81;1783435;80;21147;-78
2020/12/26 08:43:56;;;;;;;6.13;4.67;;;;;;;-2.03;83.94;93051.51;1821406;78;21720;-78
2020/12/26 08:46:26;;;;;;;5.57;4.37;;;;;;;-1.98;83.87;93055.30;1751575;80;21171;-79
2020/12/26 08:48:57;;;;;;;7.33;4.67;;;;;;;-1.92;83.85;93058.53;1810773;76;22096;-78
2020/12/26 08:51:26;;;;;;;4.83;4.30;;;;;;;-1.85;83.85;93061.45;1835334;76;21012;-77
2020/12/26 08:53:58;;;;;;;6.53;4.13;;;;;;;-1.79;83.64;93064.72;1794041;78;21182;-78
2020/12/26 08:56:36;;;;;;;9.60;6.37;;;;;;;-1.79;83.54;93070.05;1822304;78;21132;-77
2020/12/26 08:59:04;;;;;;;6.13;4.50;;;;;;;-1.83;83.68;93071.25;1801937;78;21101;-78
2020/12/26 09:01:33;;;;;;;6.50;3.93;;;;;;;-1.88;83.64;93070.13;1803279;77;21566;-78
2020/12/26 09:04:02;;;;;;;6.23;5.40;;;;;;;-1.92;83.87;93075.86;1832009;76;21367;-77
2020/12/26 09:06:35;;;;;;;14.67;8.97;;;;;;;-1.93;84.12;93078.86;1851208;76;21012;-77
2020/12/26 09:09:20;;;;;;;11.17;7.17;;;;;;;-1.93;83.96;93070.30;1812864;78;21138;-77
2020/12/26 09:11:51;;;;;;;8.77;5.57;;;;;;;-1.98;83.73;93067.29;1785423;78;21100;-78
2020/12/26 09:14:20;;;;;;;5.47;4.03;;;;;;;-2.00;83.55;93071.38;1884746;75;22651;-79
2020/12/26 09:16:58;;;;;;;6.47;4.00;;;;;;;-2.06;82.11;93067.36;1851061;76;21127;-78
2020/12/26 09:19:27;;;;;;;5.03;3.03;;;;;;;-2.13;81.72;93073.20;1825416;77;21107;-78
2020/12/26 09:22:08;;;;;;;6.57;4.03;;;;;;;-2.14;81.72;93072.98;1815555;76;21154;-77
2020/12/26 09:24:38;;;;;;;5.97;4.27;;;;;;;-2.23;80.80;93082.33;1863370;76;21052;-78
2020/12/26 09:27:19;;;;;;;5.77;4.80;;;;;;;-2.27;81.63;93078.76;1883540;75;21350;-77
2020/12/26 09:29:51;;;;;;;6.03;4.33;;;;;;;-2.27;80.27;93077.98;1892617;75;21099;-78
2020/12/26 09:32:18;;;;;;;5.37;3.07;;;;;;;-2.35;80.38;93084.92;1858277;75;21092;-78
2020/12/26 09:34:46;;;;;;;3.97;2.93;;;;;;;-2.37;80.37;93087.67;1869212;75;21078;-77
2020/12/26 09:37:16;;;;;;;4.57;4.10;;;;;;;-2.38;81.21;93092.22;1860966;75;21121;-76
2020/12/26 09:39:46;;;;;;;19.27;17.43;;;;;;;-2.35;81.35;93082.81;1845825;77;22544;-79
2020/12/26 09:42:14;;;;;;;5.30;4.80;;;;;;;-2.30;81.60;93080.73;1780110;78;21119;-78
2020/12/26 09:44:42;;;;;;;4.43;3.73;;;;;;;-2.26;80.19;93086.19;1802585;79;21143;-79
2020/12/26 09:47:11;;;;;;;4.23;3.27;;;;;;;-2.24;81.04;93095.98;1816557;78;21542;-78
2020/12/26 09:49:39;;;;;;;4.80;3.30;;;;;;;-2.22;81.63;93096.43;1801213;79;21121;-78
2020/12/26 09:52:07;;;;;;;5.73;4.07;;;;;;;-2.15;82.01;93094.04;1791372;78;21596;-79
2020/12/26 09:54:35;;;;;;;5.93;3.83;;;;;;;-2.08;81.91;93090.31;1806859;76;21117;-78
2020/12/26 09:57:03;;;;;;;4.67;2.93;;;;;;;-2.03;81.50;93095.47;1874284;75;21116;-79
2020/12/26 09:59:31;;;;;;;7.23;5.70;;;;;;;-1.99;80.30;93090.28;1803158;75;21215;-79
2020/12/26 10:02:00;;;;;;;4.17;3.23;;;;;;;-2.01;78.70;93087.14;1789408;79;21095;-77
2020/12/26 10:04:28;;;;;;;5.77;4.13;;;;;;;-2.07;78.49;93083.91;1829635;76;21207;-78
2020/12/26 10:06:56;;;;;;;5.40;3.50;;;;;;;-2.08;79.13;93078.32;1857856;76;21103;-79
2020/12/26 10:09:26;;;;;;;4.60;3.37;;;;;;;-2.06;79.63;93074.02;1847082;77;20977;-77
2020/12/26 10:11:54;;;;;;;5.13;2.80;;;;;;;-2.10;78.50;93068.56;1847039;77;21617;-78
2020/12/26 10:14:22;;;;;;;4.07;3.17;;;;;;;-2.20;77.35;93071.59;1859355;76;21166;-77
2020/12/26 10:16:51;;;;;;;5.60;4.03;;;;;;;-2.26;78.46;93080.87;1847941;76;22170;-78
2020/12/26 10:19:19;;;;;;;2.90;2.60;;;;;;;-2.29;77.12;93076.98;1839174;77;21701;-78
2020/12/26 10:21:55;;;;;;;3.57;2.30;;;;;;;-2.39;77.24;93079.23;1803158;78;21127;-77
2020/12/26 10:24:23;;;;;;;2.83;2.53;;;;;;;-2.47;76.61;93080.84;1822773;78;21454;-78
2020/12/26 10:26:51;;;;;;;3.70;3.40;;;;;;;-2.53;77.53;93079.45;1827562;77;21459;-82
2020/12/26 10:29:19;;;;;;;1.90;1.80;;;;;;;-2.57;77.22;93084.64;1829852;77;22082;-78
2020/12/26 10:31:47;;;;;;;1.90;1.80;;;;;;;-2.57;78.04;93092.62;1855738;76;21502;-79
2020/12/26 10:34:17;;;;;;;1.70;1.60;;;;;;;-2.53;77.54;93084.78;1795074;79;21183;-79
2020/12/26 10:36:45;;;;;;;2.80;2.07;;;;;;;-2.54;77.00;93091.21;1777708;79;21316;-79
2020/12/26 10:39:14;;;;;;;2.50;1.73;;;;;;;-2.55;77.69;93090.44;1781354;80;21270;-78
2020/12/26 10:41:45;;;;;;;2.50;1.80;;;;;;;-2.50;78.17;93091.58;1814719;78;22509;-78
2020/12/26 10:44:14;;;;;;;2.30;2.10;;;;;;;-2.44;78.00;93086.86;1877354;75;21447;-77
2020/12/26 10:46:45;;;;;;;2.70;2.20;;;;;;;-2.46;77.17;93081.84;1886325;75;21187;-76
2020/12/26 10:49:17;;;;;;;2.53;2.07;;;;;;;-2.47;77.75;93089.61;1857102;76;21493;-77
2020/12/26 10:51:57;;;;;;;2.53;2.10;;;;;;;-2.43;78.35;93087.64;1809427;78;21191;-77
2020/12/26 10:54:24;;;;;;;3.10;2.63;;;;;;;-2.37;78.51;93094.33;1804651;79;21664;-76
2020/12/26 10:56:52;;;;;;;6.60;5.03;;;;;;;-2.33;77.63;93094.72;1853346;76;21663;-76
2020/12/26 10:59:21;;;;;;;8.87;6.30;;;;;;;-2.26;77.76;93087.52;1875848;76;21226;-75
2020/12/26 11:01:50;;;;;;;7.17;4.40;;;;;;;-2.21;77.24;93074.81;1871505;76;21183;-75
2020/12/26 11:04:21;;;;;;;22.40;13.63;;;;;;;-2.19;77.33;93081.14;1801750;78;21168;-76
2020/12/26 11:06:50;;;;;;;16.67;8.80;;;;;;;-2.16;78.23;93079.16;1740822;77;21350;-78
2020/12/26 11:09:21;;;;;;;13.93;6.47;;;;;;;-2.08;78.46;93086.88;1833137;77;21171;-77
2020/12/26 11:11:52;;;;;;;7.73;5.30;;;;;;;-2.02;78.31;93091.69;1796062;76;21142;-76
2020/12/26 11:14:22;;;;;;;10.40;6.60;;;;;;;-1.96;77.77;93089.60;1762441;80;21524;-76
2020/12/26 11:32:40;;;;;;;5.53;3.73;;;;;;;-1.72;76.00;93121.73;1822450;77;21123;-79
2020/12/26 11:35:10;;;;;;;7.77;3.87;;;;;;;-1.71;75.84;93112.63;1848268;77;21172;-81
2020/12/26 11:37:39;;;;;;;5.53;3.40;;;;;;;-1.71;76.76;93113.96;1845619;77;21185;-79
2020/12/26 11:40:09;;;;;;;4.33;3.00;;;;;;;-1.71;76.46;93117.19;1808138;77;23664;-78
2020/12/26 11:42:42;;;;;;;3.60;2.80;;;;;;;-1.71;76.40;93105.97;1856175;77;21143;-78
2020/12/26 11:45:13;;;;;;;5.67;4.23;;;;;;;-1.67;76.50;93102.65;1837332;77;21155;-78
2020/12/26 11:47:44;;;;;;;6.77;4.57;;;;;;;-1.64;76.73;93096.67;1871621;76;21409;-79
2020/12/26 11:50:12;;;;;;;4.20;3.80;;;;;;;-1.60;76.39;93097.58;1872450;76;22668;-78
2020/12/26 11:52:40;;;;;;;5.67;4.43;;;;;;;-1.57;76.16;93103.59;1869896;76;21134;-79
2020/12/26 11:55:14;;;;;;;6.10;4.30;;;;;;;-1.53;76.05;93111.95;1863371;76;21270;-78
2020/12/26 11:57:43;;;;;;;7.90;5.23;;;;;;;-1.48;76.67;93114.41;1776275;79;21163;-78
2020/12/26 12:00:13;;;;;;;10.47;5.23;;;;;;;-1.42;76.96;93123.00;1884163;76;21439;-78
2020/12/26 12:02:42;;;;;;;6.20;4.10;;;;;;;-1.40;77.25;93126.10;1873823;76;21179;-78